Mosquitoville, Vermont
Current Conditions -  °F | °C
As of 9:51 PM on Friday 19 Dec 2014 (Local Time) from KMPV Reporting Station
Overcast Overcast  
Wind Chill: 10°   Ceiling: 1300
Heat Index: 18°   Visibility: 10mi
Dew Point: 14°   Wind: 6mph
Humidity: 84%   Direction: 20°NNE
Pressure: 30.18"   Gusts: NA
Location:  44.1959°N, 72.0788°W
Report Text: KMPV 200251Z AUTO 02005KT 10SM OVC013 M08/M10 A3018 RMK AO2 SLP242 T10781100 53013
Loading
Personal Weather Stations






























Interactive Weather Map New forecast layout! Learn more

10-Day Weather Forecast

Advertisements
Track Severe Weather on mobile